Lander, WY

9:58 PM MST on February 13, 2016 (GMT -0700)
Hunt | | Change Station
CLOSE
Current Station
Airport
Location: Lander,
Elevation: 5558 ft
Nearby Weather Stations

Elev 5558 ft 42.82 °N, 108.73 °W | Updated 5 minutes ago

Clear
Clear
31 °F
Feels Like 31 °F
N
0
Wind Variable Wind from North

Today
High -- | Low -- °F
--% Chance of Precip.
Yesterday
High -- | Low -- °F
Precip. -- in
Pressure 30.15 in
Visibility 10.0 miles
Clouds Clear
Dew Point 16 °F
Humidity 54%
Rainfall 0.00 in
Snow Depth Not available.
7:15 AM 5:43 PM
Waxing Crescent, 37% visible
METAR KLND 140453Z AUTO 00000KT 10SM CLR M01/M09 A3012 RMK AO2 SLP208 T10061089
Pressure 30.15 in
Visibility 10.0 miles
Clouds Clear
Dew Point 16 °F
Humidity 54%
Rainfall 0.00 in
Snow Depth Not available.
7:15 AM 5:43 PM
Waxing Crescent, 37% visible
METAR KLND 140453Z AUTO 00000KT 10SM CLR M01/M09 A3012 RMK AO2 SLP208 T10061089

10-Day Weather Forecast

Almanac

Astronomy

Feb. 13, 2016 Rise Set
Actual Time
Civil Twilight
Nautical Twilight
Astronomical Twilight
Moon
Length of Visible Light
Length of Day
Tomorrow will be .
, % of the Moon is Illuminated

Today's Extremes

State Highs State Lows

Community

WunderPhotos

Upload Photos

1,892,746 photos uploaded!

WunderBlog® & News

Nearby

Air Quality

  Air Quality AQ Index Pollutant
Not available.

Snow Depth

Station Depth Elevation

Earthquake Activity

City Distance Mag. Time & Date
Minimum magnitude displayed is 2.5.

Coastal Water Temperatures

Place Temperature

Stations

Nearby Weather Stations

Station Location Temp. Windchill Dew Point Humidity Wind Precip. Elev Updated Type
                   

Watches & Warnings

There are currently no watches in effect.